Terminal Aerodrome Forecast
Issued by NWS

Home | Current Version | Previous Version | Text Only | Print | Product List | Glossary On
Versions: 1 2 3 4 5 6 7 8 9 10 11 12 13 14 15 16 17 18
000
FTUS41 KBTV 310849 AAA
TAFSLK
TAF AMD
KSLK 310849Z 3109/0106 VRB03KT P6SM SCT025 BKN050
      TEMPO 3109/3112 OVC005
     FM312100 12004KT P6SM VCSH BKN028
     FM010400 03004KT P6SM VCSH SCT018 OVC025=

USA.gov is the U.S. government's official web portal to all federal, state and local government web resources and services.